createdAt,value
2022-12-03T00:00:05.038Z,15.05
2022-12-03T00:02:34.065Z,14.18
2022-12-03T00:05:00.553Z,15.88
2022-12-03T00:07:27.009Z,15.55
2022-12-03T00:09:53.393Z,13.93
2022-12-03T00:12:19.818Z,13.40
2022-12-03T00:14:46.331Z,15.20
2022-12-03T00:17:12.794Z,13.75
2022-12-03T00:19:39.261Z,14.60
2022-12-03T00:22:05.704Z,15.87
2022-12-03T00:24:32.303Z,14.77
2022-12-03T00:26:58.772Z,15.90
2022-12-03T00:29:25.167Z,15.50
2022-12-03T00:31:51.560Z,15.10
2022-12-03T00:34:18.051Z,14.13
2022-12-03T00:36:44.525Z,14.95
2022-12-03T00:39:10.921Z,14.70
2022-12-03T00:41:37.358Z,14.85
2022-12-03T00:44:03.804Z,13.88
2022-12-03T00:46:30.239Z,10.97
2022-12-03T00:48:56.691Z,12.55
2022-12-03T00:51:23.086Z,12.18
2022-12-03T00:53:49.504Z,12.25
2022-12-03T00:56:16.087Z,11.90
2022-12-03T00:58:42.529Z,11.00
2022-12-03T01:01:08.921Z,11.40
2022-12-03T01:03:35.591Z,12.25
2022-12-03T01:06:02.059Z,11.00
2022-12-03T01:08:28.571Z,11.00
2022-12-03T01:10:54.949Z,12.03
2022-12-03T01:13:21.498Z,11.10
2022-12-03T01:15:47.990Z,11.35
2022-12-03T01:18:14.451Z,10.85
2022-12-03T01:20:40.901Z,11.10
2022-12-03T01:23:07.319Z,11.47
2022-12-03T01:25:33.813Z,10.30
2022-12-03T01:28:00.199Z,11.20
2022-12-03T01:30:26.642Z,10.25
2022-12-03T01:32:53.054Z,9.73
2022-12-03T01:35:19.688Z,10.00
2022-12-03T01:37:46.144Z,9.68
2022-12-03T01:40:18.655Z,10.80
2022-12-03T01:42:45.174Z,9.45
2022-12-03T01:45:21.514Z,9.82
2022-12-03T01:47:48.140Z,8.57
2022-12-03T01:50:27.413Z,9.18
2022-12-03T01:52:58.199Z,9.25
2022-12-03T01:55:26.539Z,9.07
2022-12-03T01:57:57.188Z,9.00
2022-12-03T02:00:26.921Z,9.00
2022-12-03T02:02:59.667Z,8.30
2022-12-03T02:05:31.306Z,8.57
2022-12-03T02:07:58.699Z,9.50
2022-12-03T02:10:37.760Z,9.25
2022-12-03T02:13:07.698Z,8.93
2022-12-03T02:15:35.769Z,7.97
2022-12-03T02:18:02.747Z,8.98
2022-12-03T02:20:33.024Z,7.75
2022-12-03T02:23:13.383Z,8.95
2022-12-03T02:25:39.903Z,7.97
2022-12-03T02:28:09.085Z,7.82
2022-12-03T02:30:36.388Z,8.30
2022-12-03T02:33:04.049Z,9.30
2022-12-03T02:35:34.863Z,8.80
2022-12-03T02:38:12.264Z,7.97
2022-12-03T02:40:39.519Z,8.77
2022-12-03T02:43:06.339Z,7.97
2022-12-03T02:45:39.519Z,7.82
2022-12-03T02:48:14.470Z,8.07
2022-12-03T02:50:46.068Z,8.53
2022-12-03T02:53:17.712Z,7.63
2022-12-03T02:55:44.954Z,8.55
2022-12-03T02:58:12.047Z,7.80
2022-12-03T03:00:39.204Z,7.72
2022-12-03T03:03:07.783Z,7.60
2022-12-03T03:05:36.473Z,7.57
2022-12-03T03:08:03.758Z,7.97
2022-12-03T03:10:31.874Z,7.60
2022-12-03T03:12:58.328Z,7.25
2022-12-03T03:15:25.483Z,8.07
2022-12-03T03:17:52.357Z,8.38
2022-12-03T03:20:19.174Z,8.48
2022-12-03T03:22:45.677Z,8.18
2022-12-03T03:25:16.759Z,7.60
2022-12-03T03:27:44.732Z,7.13
2022-12-03T03:30:12.217Z,8.48
2022-12-03T03:32:40.114Z,8.45
2022-12-03T03:35:08.442Z,8.05
2022-12-03T03:37:35.132Z,8.57
2022-12-03T03:40:02.033Z,8.37
2022-12-03T03:42:28.727Z,8.68
2022-12-03T03:44:55.444Z,8.70
2022-12-03T03:47:23.780Z,8.00
2022-12-03T03:49:50.846Z,8.45
2022-12-03T03:52:19.606Z,8.67
2022-12-03T03:54:47.032Z,8.15
2022-12-03T03:57:13.530Z,8.65
2022-12-03T03:59:40.037Z,7.85
2022-12-03T04:02:06.435Z,7.75
2022-12-03T04:04:36.591Z,8.20
2022-12-03T04:07:03.315Z,8.30
2022-12-03T04:09:29.860Z,8.95
2022-12-03T04:12:15.005Z,8.30
2022-12-03T04:14:41.389Z,8.30
2022-12-03T04:17:07.793Z,9.10
2022-12-03T04:19:34.146Z,8.15
2022-12-03T04:22:19.281Z,7.82
2022-12-03T04:24:45.783Z,8.70
2022-12-03T04:27:31.105Z,8.43
2022-12-03T04:29:57.476Z,9.17
2022-12-03T04:32:42.372Z,8.38
2022-12-03T04:35:28.129Z,8.38
2022-12-03T04:37:54.625Z,7.60
2022-12-03T04:40:39.548Z,9.10
2022-12-03T04:43:05.985Z,8.83
2022-12-03T04:45:32.626Z,8.68
2022-12-03T04:47:59.074Z,9.30
2022-12-03T04:50:25.518Z,8.25
2022-12-03T04:52:51.956Z,8.30
2022-12-03T04:55:18.428Z,8.40
2022-12-03T04:57:44.785Z,8.18
2022-12-03T05:00:11.857Z,7.57
2022-12-03T05:02:38.334Z,8.27
2022-12-03T05:05:05.090Z,8.60
2022-12-03T05:07:31.584Z,8.00
2022-12-03T05:09:57.992Z,8.85
2022-12-03T05:12:24.366Z,7.97
2022-12-03T05:14:50.907Z,8.15
2022-12-03T05:17:17.559Z,7.70
2022-12-03T05:20:02.614Z,7.80
2022-12-03T05:22:29.058Z,7.85
2022-12-03T05:24:55.986Z,8.77
2022-12-03T05:27:24.200Z,7.55
2022-12-03T05:29:51.054Z,8.13
2022-12-03T05:32:18.281Z,7.80
2022-12-03T05:34:44.684Z,8.10
2022-12-03T05:37:11.350Z,8.88
2022-12-03T05:39:38.205Z,7.38
2022-12-03T05:42:23.133Z,7.65
2022-12-03T05:44:49.504Z,8.57
2022-12-03T05:47:16.147Z,8.35
2022-12-03T05:49:42.635Z,8.90
2022-12-03T05:52:09.068Z,8.73
2022-12-03T05:54:35.489Z,8.52
2022-12-03T05:57:02.054Z,8.83
2022-12-03T05:59:28.455Z,8.88
2022-12-03T06:01:55.265Z,7.97
2022-12-03T06:04:21.782Z,8.10
2022-12-03T06:06:48.159Z,8.25
2022-12-03T06:09:14.642Z,8.20
2022-12-03T06:11:41.346Z,8.85
2022-12-03T06:14:08.126Z,9.65
2022-12-03T06:16:34.504Z,8.18
2022-12-03T06:19:01.050Z,9.88
2022-12-03T06:21:27.433Z,8.83
2022-12-03T06:23:53.861Z,8.50
2022-12-03T06:26:20.237Z,8.65
2022-12-03T06:28:49.069Z,8.90
2022-12-03T06:31:15.471Z,8.75
2022-12-03T06:33:42.069Z,9.77
2022-12-03T06:36:08.647Z,8.70
2022-12-03T06:38:35.026Z,10.50
2022-12-03T06:41:01.451Z,9.68
2022-12-03T06:43:27.883Z,9.82
2022-12-03T06:45:54.337Z,9.53
2022-12-03T06:48:20.854Z,9.93
2022-12-03T06:50:47.432Z,10.52
2022-12-03T06:53:13.949Z,10.25
2022-12-03T06:55:40.389Z,9.48
2022-12-03T06:58:06.770Z,9.93
2022-12-03T07:00:33.240Z,9.82
2022-12-03T07:02:59.725Z,9.63
2022-12-03T07:05:26.297Z,10.02
2022-12-03T07:07:55.445Z,10.65
2022-12-03T07:10:22.483Z,10.60
2022-12-03T07:12:48.907Z,10.07
2022-12-03T07:15:15.435Z,10.88
2022-12-03T07:17:41.948Z,10.63
2022-12-03T07:20:09.015Z,11.40
2022-12-03T07:22:35.544Z,10.70
2022-12-03T07:25:02.326Z,10.23
2022-12-03T07:27:28.804Z,10.65
2022-12-03T07:29:55.205Z,11.00
2022-12-03T07:32:21.608Z,10.73
2022-12-03T07:34:48.242Z,11.13
2022-12-03T07:37:18.661Z,11.35
2022-12-03T07:39:48.037Z,11.48
2022-12-03T07:42:14.548Z,12.20
2022-12-03T07:44:41.111Z,11.98
2022-12-03T07:47:07.595Z,11.90
2022-12-03T07:49:34.120Z,11.10
2022-12-03T07:52:00.600Z,13.07
2022-12-03T07:54:27.193Z,12.15
2022-12-03T07:56:59.600Z,12.38
2022-12-03T07:59:27.906Z,11.70
2022-12-03T08:01:54.506Z,12.30
2022-12-03T08:04:21.496Z,11.40
2022-12-03T08:06:48.498Z,15.77
2022-12-03T08:09:16.329Z,14.98
2022-12-03T08:11:48.410Z,12.93
2022-12-03T08:14:17.591Z,12.63
2022-12-03T08:16:45.957Z,13.98
2022-12-03T08:19:15.042Z,14.50
2022-12-03T08:21:42.619Z,33.13
2022-12-03T08:24:18.874Z,18.83
2022-12-03T08:26:46.828Z,13.73
2022-12-03T08:29:19.433Z,12.18
2022-12-03T08:31:57.109Z,13.18
2022-12-03T08:34:27.474Z,15.10
2022-12-03T08:37:05.916Z,13.83
2022-12-03T08:39:35.470Z,12.98
2022-12-03T08:42:26.832Z,13.60
2022-12-03T08:44:55.298Z,11.75
2022-12-03T08:47:24.153Z,13.07
2022-12-03T08:50:03.357Z,12.10
2022-12-03T08:52:34.625Z,14.82
2022-12-03T08:55:29.132Z,13.90
2022-12-03T08:57:55.500Z,13.43
2022-12-03T09:00:24.652Z,14.60
2022-12-03T09:02:59.528Z,14.33
2022-12-03T09:05:29.749Z,17.58
2022-12-03T09:07:56.338Z,13.27
2022-12-03T09:10:22.916Z,13.65
2022-12-03T09:12:49.689Z,13.18
2022-12-03T09:15:16.352Z,13.10
2022-12-03T09:17:42.791Z,14.35
2022-12-03T09:20:09.726Z,13.40
2022-12-03T09:22:36.298Z,13.13
2022-12-03T09:25:02.956Z,17.05
2022-12-03T09:27:29.368Z,14.80
2022-12-03T09:29:55.887Z,14.95
2022-12-03T09:32:22.472Z,13.90
2022-12-03T09:34:48.921Z,14.15
2022-12-03T09:37:15.464Z,14.32
2022-12-03T09:39:42.061Z,14.70
2022-12-03T09:42:09.549Z,14.82
2022-12-03T09:44:36.556Z,14.93
2022-12-03T09:47:04.693Z,14.02
2022-12-03T09:49:33.491Z,13.75
2022-12-03T09:52:02.779Z,17.80
2022-12-03T09:54:30.296Z,15.05
2022-12-03T09:56:59.304Z,15.15
2022-12-03T09:59:29.762Z,15.32
2022-12-03T10:01:56.547Z,15.60
2022-12-03T10:04:24.152Z,15.10
2022-12-03T10:06:51.317Z,15.27
2022-12-03T10:09:24.552Z,14.88
2022-12-03T10:11:51.159Z,14.40
2022-12-03T10:14:19.557Z,14.05
2022-12-03T10:16:46.534Z,15.87
2022-12-03T10:19:21.695Z,15.63
2022-12-03T10:21:48.206Z,17.35
2022-12-03T10:24:29.205Z,17.63
2022-12-03T10:26:58.173Z,15.75
2022-12-03T10:29:34.707Z,16.10
2022-12-03T10:32:07.877Z,14.90
2022-12-03T10:34:44.675Z,15.07
2022-12-03T10:37:19.794Z,15.15
2022-12-03T10:39:56.058Z,15.88
2022-12-03T10:42:24.177Z,14.87
2022-12-03T10:45:07.753Z,14.95
2022-12-03T10:47:34.438Z,15.95
2022-12-03T10:50:03.973Z,15.50
2022-12-03T10:52:30.745Z,15.45
2022-12-03T10:54:57.362Z,15.80
2022-12-03T10:57:24.499Z,15.07
2022-12-03T10:59:51.061Z,15.38
2022-12-03T11:02:23.825Z,14.73
2022-12-03T11:04:51.760Z,15.40
2022-12-03T11:07:20.565Z,14.37
2022-12-03T11:09:49.626Z,14.85
2022-12-03T11:12:25.611Z,13.98
2022-12-03T11:14:53.323Z,14.25
2022-12-03T11:17:46.487Z,14.23
2022-12-03T11:20:24.905Z,16.00
2022-12-03T11:22:52.857Z,14.52
2022-12-03T11:25:25.390Z,14.45
2022-12-03T11:28:10.229Z,14.70
2022-12-03T11:30:48.923Z,14.63
2022-12-03T11:33:24.747Z,14.60
2022-12-03T11:36:03.103Z,14.80
2022-12-03T11:38:38.410Z,14.38
2022-12-03T11:41:07.919Z,14.50
2022-12-03T11:43:52.643Z,15.20
2022-12-03T11:46:21.325Z,13.03
2022-12-03T11:48:50.587Z,13.90
2022-12-03T11:51:21.276Z,15.05
2022-12-03T11:53:49.422Z,14.48
2022-12-03T11:56:19.201Z,14.48
2022-12-03T11:58:47.298Z,13.97
2022-12-03T12:01:15.972Z,15.43
2022-12-03T12:03:47.798Z,15.23
2022-12-03T12:06:16.465Z,15.15
2022-12-03T12:08:51.787Z,14.43
2022-12-03T12:11:33.476Z,15.00
2022-12-03T12:14:26.442Z,15.05
2022-12-03T12:16:55.156Z,14.60
2022-12-03T12:19:42.970Z,14.70
2022-12-03T12:22:24.110Z,15.52
2022-12-03T12:24:52.876Z,15.30
2022-12-03T12:27:19.441Z,14.95
2022-12-03T12:29:52.619Z,14.60
2022-12-03T12:32:24.112Z,15.63
2022-12-03T12:34:53.817Z,15.00
2022-12-03T12:37:32.714Z,15.97
2022-12-03T12:40:01.445Z,14.88
2022-12-03T12:42:42.653Z,15.20
2022-12-03T12:45:16.252Z,16.08
2022-12-03T12:48:05.773Z,16.58
2022-12-03T12:50:35.138Z,15.90
2022-12-03T12:53:25.884Z,16.90
2022-12-03T12:55:58.051Z,17.88
2022-12-03T12:58:25.757Z,16.85
2022-12-03T13:00:54.837Z,18.00
2022-12-03T13:03:25.416Z,17.07
2022-12-03T13:05:53.365Z,16.85
2022-12-03T13:08:42.731Z,18.65
2022-12-03T13:11:36.960Z,17.30
2022-12-03T13:14:18.213Z,16.33
2022-12-03T13:16:46.970Z,15.70
2022-12-03T13:19:19.044Z,20.27
2022-12-03T13:21:46.187Z,16.75
2022-12-03T13:24:24.933Z,18.05
2022-12-03T13:26:51.685Z,15.70
2022-12-03T13:29:20.363Z,15.40
2022-12-03T13:31:52.762Z,15.27
2022-12-03T13:34:25.831Z,16.02
2022-12-03T13:36:58.147Z,17.30
2022-12-03T13:39:37.777Z,17.80
2022-12-03T13:42:46.494Z,16.17
2022-12-03T13:45:16.028Z,16.73
2022-12-03T13:47:50.276Z,17.52
2022-12-03T13:50:39.383Z,15.90
2022-12-03T13:53:32.825Z,15.77
2022-12-03T13:56:33.651Z,17.03
2022-12-03T13:59:01.270Z,17.65
2022-12-03T14:01:28.182Z,17.00
2022-12-03T14:03:54.709Z,19.75
2022-12-03T14:06:21.218Z,15.82
2022-12-03T14:08:47.790Z,18.80
2022-12-03T14:11:34.162Z,18.15
2022-12-03T14:14:01.059Z,15.93
2022-12-03T14:16:27.582Z,15.10
2022-12-03T14:18:54.144Z,15.23
2022-12-03T14:21:20.553Z,15.67
2022-12-03T14:23:47.065Z,15.02
2022-12-03T14:26:13.530Z,16.40
2022-12-03T14:28:39.950Z,15.57
2022-12-03T14:31:06.407Z,14.93
2022-12-03T14:33:33.031Z,15.63
2022-12-03T14:35:59.568Z,15.13
2022-12-03T14:38:26.061Z,16.80
2022-12-03T14:40:52.494Z,15.95
2022-12-03T14:43:18.926Z,16.95
2022-12-03T14:45:45.382Z,14.73
2022-12-03T14:48:11.849Z,15.02
2022-12-03T14:50:38.256Z,16.25
2022-12-03T14:53:04.642Z,33.13
2022-12-03T14:55:31.077Z,17.58
2022-12-03T14:57:57.468Z,14.87
2022-12-03T15:00:23.934Z,14.70
2022-12-03T15:02:50.479Z,16.67
2022-12-03T15:05:18.598Z,15.15
2022-12-03T15:07:46.599Z,18.80
2022-12-03T15:10:13.127Z,17.67
2022-12-03T15:12:39.580Z,17.23
2022-12-03T15:15:06.612Z,21.45
2022-12-03T15:17:33.175Z,15.95
2022-12-03T15:19:59.727Z,17.17
2022-12-03T15:22:26.325Z,15.93
2022-12-03T15:24:52.748Z,20.40
2022-12-03T15:27:19.292Z,16.80
2022-12-03T15:29:45.718Z,14.52
2022-12-03T15:32:12.177Z,14.82
2022-12-03T15:34:38.597Z,16.13
2022-12-03T15:37:05.095Z,16.77
2022-12-03T15:39:32.968Z,20.35
2022-12-03T15:41:59.411Z,19.55
2022-12-03T15:44:25.874Z,15.05
2022-12-03T15:46:52.328Z,17.47
2022-12-03T15:49:18.976Z,16.88
2022-12-03T15:51:45.361Z,17.73
2022-12-03T15:54:12.425Z,16.92
2022-12-03T15:56:39.043Z,15.55
2022-12-03T15:59:05.471Z,16.63
2022-12-03T16:01:32.135Z,16.00
2022-12-03T16:03:58.775Z,16.00
2022-12-03T16:06:25.220Z,16.42
2022-12-03T16:08:51.606Z,16.05
2022-12-03T16:11:18.086Z,16.60
2022-12-03T16:13:44.670Z,17.45
2022-12-03T16:16:11.273Z,16.27
2022-12-03T16:18:37.740Z,16.10
2022-12-03T16:21:04.286Z,16.90
2022-12-03T16:23:30.736Z,17.77
2022-12-03T16:25:57.139Z,22.08
2022-12-03T16:28:23.573Z,16.80
2022-12-03T16:30:50.094Z,15.70
2022-12-03T16:33:16.602Z,16.50
2022-12-03T16:35:43.019Z,15.53
2022-12-03T16:38:09.441Z,16.52
2022-12-03T16:40:35.876Z,16.40
2022-12-03T16:43:04.198Z,16.17
2022-12-03T16:45:50.847Z,16.20
2022-12-03T16:48:18.402Z,17.97
2022-12-03T16:50:44.821Z,18.27
2022-12-03T16:53:11.872Z,19.15
2022-12-03T16:55:38.238Z,17.25
2022-12-03T16:58:04.629Z,15.35
2022-12-03T17:00:31.080Z,16.77
2022-12-03T17:02:57.636Z,17.40
2022-12-03T17:05:24.146Z,16.58
2022-12-03T17:07:50.692Z,15.30
2022-12-03T17:10:17.292Z,17.15
2022-12-03T17:13:08.087Z,14.87
2022-12-03T17:15:30.641Z,15.90
2022-12-03T17:17:57.512Z,15.35
2022-12-03T17:20:24.416Z,14.75
2022-12-03T17:22:50.927Z,18.42
2022-12-03T17:25:17.641Z,16.83
2022-12-03T17:27:45.495Z,15.50
2022-12-03T17:30:12.860Z,16.92
2022-12-03T17:32:39.423Z,15.18
2022-12-03T17:35:06.398Z,16.38
2022-12-03T17:37:32.901Z,14.60
2022-12-03T17:39:59.448Z,14.90
2022-12-03T17:42:26.082Z,16.52
2022-12-03T17:44:52.581Z,14.48
2022-12-03T17:47:19.033Z,15.15
2022-12-03T17:49:45.517Z,15.07
2022-12-03T17:52:12.008Z,14.82
2022-12-03T17:55:08.595Z,14.02
2022-12-03T17:57:25.385Z,21.90
2022-12-03T17:59:52.550Z,21.10
2022-12-03T18:02:19.258Z,17.10
2022-12-03T18:04:45.715Z,16.52
2022-12-03T18:07:12.104Z,16.00
2022-12-03T18:09:38.560Z,15.70
2022-12-03T18:12:05.183Z,19.02
2022-12-03T18:14:31.636Z,15.13
2022-12-03T18:16:58.047Z,14.82
2022-12-03T18:19:24.470Z,16.20
2022-12-03T18:21:50.943Z,16.42
2022-12-03T18:24:17.626Z,16.58
2022-12-03T18:26:44.145Z,16.27
2022-12-03T18:29:10.576Z,16.60
2022-12-03T18:31:37.039Z,15.02
2022-12-03T18:34:03.478Z,16.98
2022-12-03T18:36:35.099Z,15.57
2022-12-03T18:39:04.447Z,15.50
2022-12-03T18:41:30.922Z,13.10
2022-12-03T18:43:57.404Z,14.48
2022-12-03T18:49:10.760Z,16.25
2022-12-03T18:51:37.670Z,14.20
2022-12-03T18:54:04.556Z,14.00
2022-12-03T18:56:30.977Z,14.02
2022-12-03T18:58:57.465Z,14.95
2022-12-03T19:01:24.075Z,17.15
2022-12-03T19:03:50.640Z,14.13
2022-12-03T19:06:19.844Z,14.95
2022-12-03T19:08:48.292Z,16.38
2022-12-03T19:11:15.300Z,16.92
2022-12-03T19:13:42.507Z,21.23
2022-12-03T19:16:10.499Z,17.37
2022-12-03T19:18:36.996Z,16.02
2022-12-03T19:21:12.333Z,16.10
2022-12-03T19:23:39.512Z,16.55
2022-12-03T19:26:09.527Z,14.63
2022-12-03T19:28:36.337Z,15.67
2022-12-03T19:31:13.628Z,14.75
2022-12-03T19:33:40.399Z,16.23
2022-12-03T19:36:07.706Z,14.68
2022-12-03T19:38:34.704Z,14.52
2022-12-03T19:41:04.153Z,14.77
2022-12-03T19:43:32.413Z,15.57
2022-12-03T19:46:06.810Z,15.60
2022-12-03T19:48:34.649Z,15.27
2022-12-03T19:51:26.530Z,15.30
2022-12-03T19:53:48.894Z,15.03
2022-12-03T19:56:17.868Z,15.52
2022-12-03T19:58:45.565Z,15.85
2022-12-03T20:01:18.025Z,14.70
2022-12-03T20:03:49.757Z,15.00
2022-12-03T20:06:18.263Z,15.33
2022-12-03T20:08:45.548Z,15.88
2022-12-03T20:11:12.059Z,15.23
2022-12-03T20:13:39.118Z,14.95
2022-12-03T20:16:07.368Z,15.02
2022-12-03T20:18:34.094Z,15.20
2022-12-03T20:21:01.386Z,16.38
2022-12-03T20:23:28.245Z,15.45
2022-12-03T20:25:54.939Z,16.20
2022-12-03T20:28:21.405Z,15.70
2022-12-03T20:31:09.590Z,16.67
2022-12-03T20:33:36.855Z,14.38
2022-12-03T20:36:03.781Z,17.50
2022-12-03T20:38:31.906Z,20.60
2022-12-03T20:41:02.339Z,21.63
2022-12-03T20:43:29.196Z,25.43
2022-12-03T20:46:01.041Z,19.55
2022-12-03T20:48:29.072Z,17.98
2022-12-03T20:50:55.562Z,20.40
2022-12-03T20:53:25.625Z,18.50
2022-12-03T20:55:56.436Z,16.43
2022-12-03T20:58:22.989Z,15.40
2022-12-03T21:00:49.633Z,15.60
2022-12-03T21:03:16.267Z,14.85
2022-12-03T21:05:43.869Z,15.57
2022-12-03T21:08:10.950Z,15.27
2022-12-03T21:10:47.605Z,15.27
2022-12-03T21:13:15.861Z,16.13
2022-12-03T21:15:43.402Z,15.35
2022-12-03T21:18:12.030Z,15.38
2022-12-03T21:20:44.896Z,18.27
2022-12-03T21:23:11.927Z,16.67
2022-12-03T21:25:38.488Z,16.33
2022-12-03T21:28:07.316Z,16.15
2022-12-03T21:30:36.518Z,15.95
2022-12-03T21:33:03.383Z,14.83
2022-12-03T21:35:30.201Z,14.57
2022-12-03T21:37:56.663Z,16.48
2022-12-03T21:40:23.216Z,14.30
2022-12-03T21:42:49.654Z,14.88
2022-12-03T21:45:16.394Z,14.47
2022-12-03T21:47:46.554Z,14.05
2022-12-03T21:50:13.125Z,14.32
2022-12-03T21:52:39.657Z,14.07
2022-12-03T21:55:06.389Z,14.18
2022-12-03T21:57:35.978Z,14.43
2022-12-03T22:00:07.773Z,14.65
2022-12-03T22:02:34.718Z,14.57
2022-12-03T22:05:01.235Z,14.75
2022-12-03T22:07:27.787Z,14.68
2022-12-03T22:09:54.426Z,14.67
2022-12-03T22:12:21.118Z,14.77
2022-12-03T22:14:47.587Z,15.20
2022-12-03T22:17:14.019Z,13.85
2022-12-03T22:19:40.465Z,14.60
2022-12-03T22:22:06.908Z,13.67
2022-12-03T22:24:33.535Z,14.70
2022-12-03T22:26:59.964Z,12.48
2022-12-03T22:29:26.376Z,13.90
2022-12-03T22:31:52.748Z,12.55
2022-12-03T22:34:19.119Z,14.93
2022-12-03T22:36:45.550Z,14.95
2022-12-03T22:39:11.951Z,13.50
2022-12-03T22:41:39.137Z,14.48
2022-12-03T22:44:05.671Z,14.82
2022-12-03T22:46:32.107Z,14.53
2022-12-03T22:49:03.480Z,13.63
2022-12-03T22:51:33.465Z,13.82
2022-12-03T22:54:01.676Z,14.13
2022-12-03T22:56:29.705Z,13.18
2022-12-03T22:58:56.333Z,14.73
2022-12-03T23:01:24.394Z,13.70
2022-12-03T23:03:51.082Z,13.77
2022-12-03T23:06:18.621Z,13.65
2022-12-03T23:08:45.062Z,14.55
2022-12-03T23:11:11.934Z,13.43
2022-12-03T23:13:38.646Z,15.02
2022-12-03T23:16:05.446Z,14.60
2022-12-03T23:18:32.422Z,14.05
2022-12-03T23:20:59.087Z,13.20
2022-12-03T23:23:27.357Z,13.13
2022-12-03T23:26:00.832Z,13.82
2022-12-03T23:28:28.900Z,14.45
2022-12-03T23:30:55.936Z,13.55
2022-12-03T23:33:23.304Z,14.85
2022-12-03T23:35:49.732Z,14.27
2022-12-03T23:38:17.515Z,14.63
2022-12-03T23:40:48.076Z,13.65
2022-12-03T23:43:15.152Z,13.60
2022-12-03T23:45:41.618Z,13.90
2022-12-03T23:48:08.086Z,14.00
2022-12-03T23:50:34.928Z,13.73
2022-12-03T23:53:01.311Z,12.82
2022-12-03T23:55:27.732Z,13.25
2022-12-03T23:57:54.152Z,14.60
